EW8705 Weather Reports


Display with metric or nautical units.
time (UTC)temp
F
wind
direction
speed
MPH
gust
MPH
rain 1hr
in
rain 24hr
in
rain mn
in
humidity
%
barometer
mb
20191216030113 44 149 1.0 6.0 0.00 0.00 0.00 76 1019.9
20191216024535 45 143 2.0 6.0 0.00 0.00 0.00 74 1019.8
20191216023038 46 202 2.0 6.0 0.00 0.00 0.00 73 1019.7
20191216021645 44 159 1.0 4.0 0.00 0.00 0.00 77 1019.6
20191216020054 45 149 3.0 4.0 0.00 0.00 0.00 76 1019.5
20191216014703 45 148 2.0 4.0 0.00 0.00 0.00 76 1019.5
20191216013137 45 167 1.0 4.0 0.00 0.00 0.00 76 1019.5
20191216011542 45 146 1.0 5.0 0.00 0.00 0.00 75 1019.4
20191216010058 45 145 3.0 5.0 0.00 0.00 0.00 75 1019.4
20191216004533 45 154 2.0 5.0 0.00 0.00 0.00 76 1019.5
20191216003020 45 141 4.0 7.0 0.00 0.00 0.00 75 1019.4
20191216001537 45 144 2.0 5.0 0.00 0.00 0.00 75 1019.4
20191216000024 45 133 3.0 5.0 0.00 0.00 0.00 75 1019.3
20191215234512 46 160 3.0 4.0 0.00 0.00 0.00 75 1019.3
20191215233010 46 155 3.0 5.0 0.00 0.00 0.00 74 1019.2
20191215231538 46 170 2.0 4.0 0.00 0.00 0.00 75 1019.2
20191215230007 46 144 3.0 6.0 0.00 0.00 0.00 75 1019.1
20191215224503 47 149 3.0 6.0 0.00 0.00 0.00 74 1019.0
20191215223313 46 155 2.0 5.0 0.00 0.00 0.00 76 1018.8
20191215221710 46 147 2.0 4.0 0.00 0.00 0.00 76 1018.8
20191215220156 47 147 4.0 6.0 0.00 0.00 0.00 75 1018.6
20191215214823 46 147 3.0 5.0 0.00 0.00 0.00 77 1018.6
20191215213200 46 145 3.0 5.0 0.00 0.00 0.00 77 1018.6
20191215211738 46 127 2.0 5.0 0.00 0.00 0.00 77 1018.7
20191215210140 46 153 2.0 5.0 0.00 0.00 0.00 78 1018.6
20191215204728 46 136 3.0 5.0 0.00 0.00 0.00 80 1018.6
20191215203129 46 150 2.0 4.0 0.00 0.00 0.00 80 1018.6
20191215201734 45 154 2.0 4.0 0.00 0.00 0.00 82 1018.6
20191215200142 46 140 1.0 4.0 0.00 0.00 0.00 81 1018.7
20191215194700 46 150 1.0 2.0 0.00 0.00 0.00 81 1018.6
20191215193323 46 162 1.0 4.0 0.00 0.00 0.00 81 1018.5
20191215191714 46 166 1.0 3.0 0.00 0.00 0.00 82 1018.4
20191215190152 46 143 1.0 3.0 0.00 0.00 0.00 82 1018.4
20191215184649 47 174 2.0 3.0 0.00 0.00 0.00 79 1018.4
20191215183125 47 158 3.0 6.0 0.00 0.00 0.00 81 1018.4
20191215181747 48 158 3.0 4.0 0.00 0.00 0.00 80 1018.2
20191215180140 48 156 1.0 3.0 0.00 0.00 0.00 80 1018.1
20191215174705 48 144 1.0 2.0 0.00 0.00 0.00 79 1017.9
20191215173127 49 159 1.0 4.0 0.00 0.00 0.00 79 1017.9
20191215171630 49 136 0.0 4.0 0.00 0.00 0.00 79 1017.7
20191215170215 50 141 1.0 3.0 0.00 0.00 0.00 77 1017.5
20191215164625 51 150 0.0 3.0 0.00 0.00 0.00 77 1017.5
20191215163041 51 148 2.0 4.0 0.00 0.00 0.00 78 1017.3
20191215161616 52 166 3.0 5.0 0.00 0.00 0.00 77 1017.3
20191215160100 53 139 3.0 4.0 0.00 0.00 0.00 76 1017.2
20191215154554 54 156 3.0 5.0 0.00 0.00 0.00 75 1017.2
20191215153054 55 153 2.0 6.0 0.00 0.00 0.00 75 1017.1
20191215151632 55 172 1.0 2.0 0.00 0.00 0.00 77 1017.1
20191215150047 55 158 0.0 2.0 0.00 0.00 0.00 75 1016.9
20191215144540 56 190 1.0 3.0 0.00 0.00 0.00 72 1016.8
20191215143107 56 269 0.0 3.0 0.00 0.00 0.00 76 1016.6
20191215141546 59 276 0.0 1.0 0.00 0.00 0.00 66 1016.2
20191215140109 60 155 0.0 2.0 0.00 0.00 0.00 63 1016.0
20191215134526 62 209 2.0 3.0 0.00 0.00 0.00 60 1015.8
20191215133018 64 212 0.0 0.0 0.00 0.00 0.00 56 1015.6
20191215131515 64 300 0.0 0.0 0.00 0.00 0.00 55 1015.6
20191215130014 64 133 0.0 0.0 0.00 0.00 0.00 59 1015.7
20191215124514 62 134 0.0 1.0 0.00 0.00 0.00 63 1015.6
20191215114759 60 307 0.0 1.0 0.00 0.00 0.00 66 1015.5
20191215113141 60 360 0.0 1.0 0.00 0.00 0.00 66 1015.4
20191215111719 60 349 0.0 1.0 0.00 0.00 0.00 66 1015.3
20191215110250 59 349 0.0 0.0 0.00 0.00 0.00 67 1015.2
20191215104720 60 350 0.0 0.0 0.00 0.00 0.00 65 1015.1
20191215103130 60 350 0.0 0.0 0.00 0.00 0.00 65 1015.2
20191215101726 61 349 0.0 1.0 0.00 0.00 0.00 64 1015.1
20191215100254 62 214 0.0 1.0 0.00 0.00 0.00 58 1015.1
20191215094817 62 214 0.0 0.0 0.00 0.00 0.00 55 1015.1
20191215093315 61 214 0.0 1.0 0.00 0.00 0.00 54 1015.1
20191215091725 61 269 0.0 1.0 0.00 0.00 0.00 53 1015.2
20191215090132 61 236 0.0 0.0 0.00 0.00 0.00 56 1015.3
20191215084814 61 236 0.0 0.0 0.00 0.00 0.00 56 1015.4
20191215083107 60 236 0.0 0.0 0.00 0.00 0.00 58 1015.5
20191215081600 59 169 0.0 0.0 0.00 0.00 0.00 61 1015.6
20191215080110 58 188 0.0 2.0 0.00 0.00 0.00 65 1015.8
20191215074613 57 165 0.0 1.0 0.00 0.00 0.00 68 1015.8
20191215073105 56 148 0.0 2.0 0.00 0.00 0.00 68 1015.8
20191215071525 55 174 1.0 3.0 0.00 0.00 0.00 70 1015.8
20191215070032 54 174 0.0 2.0 0.00 0.00 0.00 70 1015.8
20191215064523 53 161 1.0 3.0 0.00 0.00 0.00 70 1015.7
20191215061507 50 172 0.0 3.0 0.00 0.00 0.00 73 1015.4
20191215060006 49 136 1.0 5.0 0.00 0.02 0.00 73 1015.2
20191215054502 48 132 3.0 5.0 0.00 0.02 0.00 74 1015.1
20191215053000 47 115 3.0 5.0 0.00 0.02 0.00 76 1015.0
20191215051752 46 143 2.0 4.0 0.00 0.02 0.00 75 1015.0
20191215050449 46 153 1.0 4.0 0.00 0.02 0.00 76 1015.0
20191215044844 46 153 3.0 5.0 0.00 0.02 0.00 75 1014.8
20191215043230 46 155 2.0 4.0 0.00 0.02 0.00 76 1014.8
20191215041725 46 153 1.0 4.0 0.00 0.02 0.00 76 1014.6
20191215034654 46 145 2.0 5.0 0.00 0.02 0.00 76 1014.3
20191215033131 46 171 2.0 4.0 0.00 0.02 0.00 75 1014.2
20191215031800 46 162 2.0 4.0 0.00 0.02 0.00 74 1014.2